createdAt,value
2023-03-07T00:00:46.433Z,1.34
2023-03-07T00:03:14.696Z,1.46
2023-03-07T00:05:41.596Z,1.47
2023-03-07T00:08:09.051Z,1.30
2023-03-07T00:10:35.811Z,1.23
2023-03-07T00:13:02.921Z,1.19
2023-03-07T00:15:30.442Z,1.17
2023-03-07T00:17:58.039Z,1.28
2023-03-07T00:20:24.607Z,1.40
2023-03-07T00:22:51.145Z,1.41
2023-03-07T00:25:17.788Z,1.45
2023-03-07T00:27:44.371Z,1.39
2023-03-07T00:30:12.572Z,1.37
2023-03-07T00:32:39.342Z,1.38
2023-03-07T00:35:06.548Z,1.40
2023-03-07T00:37:33.052Z,1.37
2023-03-07T00:39:59.589Z,1.39
2023-03-07T00:42:26.120Z,1.36
2023-03-07T00:44:52.642Z,1.47
2023-03-07T00:47:19.173Z,1.38
2023-03-07T00:49:45.685Z,1.42
2023-03-07T00:52:12.209Z,1.42
2023-03-07T00:54:38.763Z,1.44
2023-03-07T00:57:05.349Z,1.53
2023-03-07T00:59:31.981Z,1.48
2023-03-07T01:01:58.498Z,1.60
2023-03-07T01:04:25.115Z,1.41
2023-03-07T01:06:51.651Z,1.45
2023-03-07T01:09:18.174Z,1.59
2023-03-07T01:11:44.751Z,1.62
2023-03-07T01:14:11.364Z,1.63
2023-03-07T01:16:38.500Z,1.64
2023-03-07T01:19:08.388Z,1.73
2023-03-07T01:21:40.031Z,1.74
2023-03-07T01:24:08.003Z,1.67
2023-03-07T01:26:35.071Z,1.64
2023-03-07T01:29:03.808Z,1.90
2023-03-07T01:31:32.404Z,2.00
2023-03-07T01:33:59.612Z,2.03
2023-03-07T01:36:30.320Z,2.08
2023-03-07T01:39:21.278Z,2.12
2023-03-07T01:41:47.811Z,2.03
2023-03-07T01:44:18.448Z,2.10
2023-03-07T01:46:48.064Z,2.04
2023-03-07T01:49:22.114Z,1.99
2023-03-07T01:51:54.631Z,1.92
2023-03-07T01:54:24.488Z,1.99
2023-03-07T01:56:52.175Z,1.88
2023-03-07T01:59:24.890Z,1.73
2023-03-07T02:01:52.053Z,1.83
2023-03-07T02:04:26.625Z,1.80
2023-03-07T02:06:53.260Z,1.79
2023-03-07T02:09:22.159Z,1.83
2023-03-07T02:11:49.978Z,1.78
2023-03-07T02:14:16.557Z,1.76
2023-03-07T02:16:43.296Z,1.82
2023-03-07T02:19:36.358Z,1.80
2023-03-07T02:22:17.767Z,1.80
2023-03-07T02:25:06.025Z,1.94
2023-03-07T02:27:34.550Z,1.86
2023-03-07T02:30:01.069Z,1.92
2023-03-07T02:32:27.731Z,1.88
2023-03-07T02:34:54.420Z,1.95
2023-03-07T02:37:34.685Z,1.96
2023-03-07T02:40:06.907Z,1.98
2023-03-07T02:42:38.015Z,2.09
2023-03-07T02:45:08.157Z,2.06
2023-03-07T02:47:34.695Z,2.11
2023-03-07T02:50:01.380Z,2.14
2023-03-07T02:52:28.698Z,2.11
2023-03-07T02:54:56.001Z,2.05
2023-03-07T02:57:22.577Z,1.89
2023-03-07T02:59:49.080Z,1.99
2023-03-07T03:02:15.912Z,1.81
2023-03-07T03:04:42.466Z,1.83
2023-03-07T03:07:09.048Z,1.66
2023-03-07T03:09:36.252Z,1.47
2023-03-07T03:12:02.811Z,1.34
2023-03-07T03:14:29.382Z,1.43
2023-03-07T03:16:56.025Z,1.41
2023-03-07T03:19:22.574Z,1.40
2023-03-07T03:21:49.171Z,1.34
2023-03-07T03:24:15.721Z,1.26
2023-03-07T03:26:42.313Z,1.22
2023-03-07T03:29:09.809Z,1.47
2023-03-07T03:31:36.468Z,1.52
2023-03-07T03:34:05.139Z,1.55
2023-03-07T03:36:31.801Z,1.67
2023-03-07T03:38:59.727Z,1.78
2023-03-07T03:41:26.719Z,1.72
2023-03-07T03:43:53.782Z,1.62
2023-03-07T03:46:20.488Z,1.70
2023-03-07T03:48:54.784Z,1.74
2023-03-07T03:51:22.460Z,1.60
2023-03-07T03:53:49.631Z,1.71
2023-03-07T03:56:19.188Z,1.73
2023-03-07T03:58:53.532Z,1.65
2023-03-07T04:01:22.517Z,1.78
2023-03-07T04:03:51.265Z,1.70
2023-03-07T04:06:20.691Z,1.71
2023-03-07T04:08:48.319Z,1.62
2023-03-07T04:11:14.848Z,1.71
2023-03-07T04:13:41.486Z,1.54
2023-03-07T04:16:08.274Z,1.58
2023-03-07T04:18:36.290Z,1.61
2023-03-07T04:21:03.744Z,1.55
2023-03-07T04:23:30.259Z,1.44
2023-03-07T04:25:59.024Z,1.46
2023-03-07T04:28:28.068Z,1.39
2023-03-07T04:30:56.226Z,1.44
2023-03-07T04:33:23.032Z,1.33
2023-03-07T04:35:49.630Z,1.31
2023-03-07T04:38:16.278Z,1.30
2023-03-07T04:40:42.817Z,1.29
2023-03-07T04:43:09.334Z,1.23
2023-03-07T04:45:37.253Z,1.34
2023-03-07T04:48:04.289Z,1.30
2023-03-07T04:50:30.815Z,1.31
2023-03-07T04:52:57.388Z,1.46
2023-03-07T04:55:23.954Z,1.41
2023-03-07T04:57:52.009Z,1.34
2023-03-07T05:00:20.037Z,1.38
2023-03-07T05:02:48.519Z,1.40
2023-03-07T05:05:15.083Z,1.41
2023-03-07T05:07:41.966Z,1.52
2023-03-07T05:10:09.927Z,1.82
2023-03-07T05:12:36.470Z,1.98
2023-03-07T05:15:03.083Z,2.07
2023-03-07T05:17:31.232Z,2.06
2023-03-07T05:19:57.788Z,2.08
2023-03-07T05:22:24.399Z,2.17
2023-03-07T05:24:50.953Z,2.21
2023-03-07T05:27:17.536Z,2.30
2023-03-07T05:29:44.095Z,2.30
2023-03-07T05:32:11.289Z,2.35
2023-03-07T05:34:38.261Z,2.36
2023-03-07T05:37:04.990Z,2.34
2023-03-07T05:39:31.585Z,2.34
2023-03-07T05:41:58.112Z,2.35
2023-03-07T05:44:24.781Z,2.45
2023-03-07T05:46:51.304Z,2.45
2023-03-07T05:49:17.957Z,2.56
2023-03-07T05:51:44.528Z,2.52
2023-03-07T05:54:11.045Z,2.56
2023-03-07T05:56:37.745Z,2.56
2023-03-07T05:59:07.628Z,2.57
2023-03-07T06:01:34.662Z,2.61
2023-03-07T06:04:01.228Z,2.64
2023-03-07T06:06:27.773Z,2.63
2023-03-07T06:08:54.444Z,2.54
2023-03-07T06:11:21.140Z,2.67
2023-03-07T06:13:47.756Z,2.72
2023-03-07T06:16:14.555Z,2.75
2023-03-07T06:18:41.454Z,2.78
2023-03-07T06:21:10.186Z,2.82
2023-03-07T06:23:37.357Z,2.83
2023-03-07T06:26:04.610Z,2.92
2023-03-07T06:28:32.911Z,2.93
2023-03-07T06:30:59.806Z,2.99
2023-03-07T06:33:26.673Z,3.01
2023-03-07T06:35:53.244Z,2.95
2023-03-07T06:38:19.846Z,3.06
2023-03-07T06:40:55.130Z,3.08
2023-03-07T06:43:21.705Z,3.12
2023-03-07T06:45:48.338Z,3.08
2023-03-07T06:48:14.885Z,3.02
2023-03-07T06:50:41.398Z,3.12
2023-03-07T06:53:07.942Z,3.05
2023-03-07T06:55:34.466Z,3.01
2023-03-07T06:58:01.007Z,3.01
2023-03-07T07:00:28.161Z,2.99
2023-03-07T07:02:55.177Z,3.06
2023-03-07T07:05:22.104Z,3.13
2023-03-07T07:07:48.655Z,3.14
2023-03-07T07:10:15.313Z,3.30
2023-03-07T07:12:41.918Z,3.29
2023-03-07T07:15:09.702Z,3.34
2023-03-07T07:17:36.641Z,3.48
2023-03-07T07:20:05.416Z,3.52
2023-03-07T07:22:33.008Z,3.63
2023-03-07T07:24:59.600Z,3.52
2023-03-07T07:27:26.180Z,3.59
2023-03-07T07:29:52.716Z,3.62
2023-03-07T07:32:19.583Z,3.71
2023-03-07T07:34:46.183Z,3.68
2023-03-07T07:37:12.804Z,3.72
2023-03-07T07:39:43.582Z,3.78
2023-03-07T07:42:11.199Z,3.86
2023-03-07T07:44:37.786Z,3.96
2023-03-07T07:47:04.476Z,3.72
2023-03-07T07:49:31.043Z,3.98
2023-03-07T07:51:57.664Z,3.90
2023-03-07T07:54:24.363Z,3.85
2023-03-07T07:56:51.045Z,3.87
2023-03-07T07:59:17.597Z,3.89
2023-03-07T08:01:44.239Z,3.90
2023-03-07T08:04:11.206Z,3.98
2023-03-07T08:06:38.069Z,3.90
2023-03-07T08:09:05.556Z,4.01
2023-03-07T08:11:32.241Z,4.03
2023-03-07T08:13:58.730Z,4.21
2023-03-07T08:16:26.108Z,3.92
2023-03-07T08:18:55.798Z,4.33
2023-03-07T08:21:22.780Z,4.28
2023-03-07T08:23:49.583Z,4.15
2023-03-07T08:26:17.573Z,4.27
2023-03-07T08:28:44.112Z,4.12
2023-03-07T08:31:14.876Z,4.07
2023-03-07T08:33:42.079Z,4.19
2023-03-07T08:36:09.381Z,4.38
2023-03-07T08:38:35.965Z,4.40
2023-03-07T08:41:05.178Z,4.51
2023-03-07T08:43:33.856Z,4.56
2023-03-07T08:46:00.556Z,4.52
2023-03-07T08:48:27.862Z,4.82
2023-03-07T08:50:55.383Z,4.89
2023-03-07T08:53:22.765Z,4.84
2023-03-07T08:55:49.870Z,4.86
2023-03-07T08:58:16.512Z,4.94
2023-03-07T09:00:43.268Z,4.97
2023-03-07T09:03:09.801Z,5.05
2023-03-07T09:05:39.001Z,5.06
2023-03-07T09:08:06.679Z,5.06
2023-03-07T09:10:34.058Z,5.21
2023-03-07T09:13:00.833Z,5.32
2023-03-07T09:15:27.452Z,5.31
2023-03-07T09:17:54.092Z,5.48
2023-03-07T09:20:20.590Z,5.29
2023-03-07T09:22:47.109Z,5.47
2023-03-07T09:25:14.460Z,5.42
2023-03-07T09:27:40.973Z,5.14
2023-03-07T09:30:08.242Z,5.13
2023-03-07T09:32:35.127Z,5.31
2023-03-07T09:35:01.731Z,5.36
2023-03-07T09:37:28.524Z,5.61
2023-03-07T09:39:55.040Z,5.51
2023-03-07T09:42:38.176Z,5.65
2023-03-07T09:45:38.517Z,5.97
2023-03-07T09:48:09.982Z,5.92
2023-03-07T09:51:11.520Z,5.69
2023-03-07T09:53:47.354Z,5.87
2023-03-07T09:56:42.573Z,5.91
2023-03-07T09:59:36.313Z,6.08
2023-03-07T10:02:17.909Z,5.85
2023-03-07T10:04:52.106Z,6.26
2023-03-07T10:07:23.333Z,6.23
2023-03-07T10:09:54.455Z,6.02
2023-03-07T10:12:44.630Z,5.97
2023-03-07T10:15:20.228Z,6.14
2023-03-07T10:18:00.875Z,6.36
2023-03-07T10:20:36.612Z,6.17
2023-03-07T10:23:19.627Z,6.09
2023-03-07T10:25:56.778Z,6.34
2023-03-07T10:28:27.394Z,6.57
2023-03-07T10:31:25.957Z,6.54
2023-03-07T10:33:54.543Z,6.38
2023-03-07T10:36:41.296Z,6.57
2023-03-07T10:39:34.654Z,6.66
2023-03-07T10:42:01.207Z,6.88
2023-03-07T10:44:34.196Z,7.05
2023-03-07T10:47:00.977Z,7.07
2023-03-07T10:49:43.627Z,6.72
2023-03-07T10:52:20.494Z,6.54
2023-03-07T10:54:47.055Z,6.80
2023-03-07T10:57:18.539Z,7.00
2023-03-07T10:59:52.833Z,6.70
2023-03-07T11:02:44.739Z,6.71
2023-03-07T11:05:31.251Z,7.17
2023-03-07T11:07:59.666Z,7.38
2023-03-07T11:10:44.792Z,7.48
2023-03-07T11:13:20.119Z,6.93
2023-03-07T11:15:47.715Z,6.85
2023-03-07T11:18:30.045Z,7.53
2023-03-07T11:20:57.630Z,7.37
2023-03-07T11:23:27.181Z,7.31
2023-03-07T11:25:54.943Z,7.33
2023-03-07T11:28:33.513Z,7.27
2023-03-07T11:31:10.015Z,7.31
2023-03-07T11:34:06.582Z,7.37
2023-03-07T11:36:35.944Z,7.21
2023-03-07T11:39:34.300Z,6.98
2023-03-07T11:42:06.663Z,7.19
2023-03-07T11:44:54.950Z,6.94
2023-03-07T11:47:31.343Z,6.90
2023-03-07T11:50:17.318Z,7.02
2023-03-07T11:53:08.765Z,6.71
2023-03-07T11:56:00.124Z,6.63
2023-03-07T11:58:51.557Z,6.92
2023-03-07T12:01:50.962Z,7.29
2023-03-07T12:04:52.639Z,7.41
2023-03-07T12:07:43.928Z,7.56
2023-03-07T12:10:47.480Z,7.18
2023-03-07T12:13:54.438Z,7.57
2023-03-07T12:16:42.865Z,7.97
2023-03-07T12:19:32.878Z,7.94
2023-03-07T12:22:05.361Z,7.93
2023-03-07T12:24:38.402Z,8.03
2023-03-07T12:27:25.012Z,7.86
2023-03-07T12:30:10.066Z,8.29
2023-03-07T12:32:38.173Z,7.84
2023-03-07T12:35:43.152Z,7.86
2023-03-07T12:38:48.138Z,8.15
2023-03-07T12:41:21.168Z,7.98
2023-03-07T12:43:54.556Z,7.83
2023-03-07T12:46:31.371Z,7.94
2023-03-07T12:49:15.992Z,7.90
2023-03-07T12:51:58.176Z,7.56
2023-03-07T12:54:42.230Z,7.90
2023-03-07T12:57:20.864Z,7.98
2023-03-07T12:59:50.751Z,7.68
2023-03-07T13:02:24.686Z,7.64
2023-03-07T13:04:51.401Z,7.68
2023-03-07T13:07:24.222Z,7.93
2023-03-07T13:09:52.987Z,7.64
2023-03-07T13:12:29.551Z,7.46
2023-03-07T13:14:57.230Z,7.68
2023-03-07T13:17:35.590Z,7.82
2023-03-07T13:20:41.300Z,7.43
2023-03-07T13:23:26.135Z,7.63
2023-03-07T13:25:58.640Z,7.73
2023-03-07T13:28:42.948Z,7.97
2023-03-07T13:31:37.868Z,8.05
2023-03-07T13:34:51.302Z,8.32
2023-03-07T13:37:51.954Z,8.22
2023-03-07T13:40:24.173Z,8.27
2023-03-07T13:42:51.183Z,8.29
2023-03-07T13:45:47.195Z,8.24
2023-03-07T13:48:35.763Z,8.04
2023-03-07T13:51:02.444Z,8.09
2023-03-07T13:53:31.480Z,7.92
2023-03-07T13:56:10.150Z,7.95
2023-03-07T13:59:00.817Z,7.93
2023-03-07T14:01:40.628Z,7.60
2023-03-07T14:04:16.982Z,7.63
2023-03-07T14:06:47.399Z,7.75
2023-03-07T14:09:23.938Z,7.73
2023-03-07T14:12:21.353Z,7.68
2023-03-07T14:15:03.071Z,7.78
2023-03-07T14:17:54.737Z,7.56
2023-03-07T14:20:42.911Z,7.58
2023-03-07T14:23:24.683Z,7.48
2023-03-07T14:25:58.975Z,7.42
2023-03-07T14:28:28.586Z,7.56
2023-03-07T14:31:00.618Z,7.59
2023-03-07T14:33:35.893Z,7.33
2023-03-07T14:36:34.920Z,7.25
2023-03-07T14:39:04.486Z,7.07
2023-03-07T14:41:36.141Z,7.12
2023-03-07T14:44:17.501Z,7.15
2023-03-07T14:47:05.931Z,7.01
2023-03-07T14:49:45.744Z,6.92
2023-03-07T14:52:29.677Z,7.03
2023-03-07T14:55:01.773Z,7.05
2023-03-07T14:57:33.590Z,6.96
2023-03-07T15:00:12.960Z,6.78
2023-03-07T15:02:50.992Z,7.01
2023-03-07T15:05:21.181Z,6.79
2023-03-07T15:07:48.242Z,6.78
2023-03-07T15:10:42.465Z,6.94
2023-03-07T15:13:25.113Z,7.06
2023-03-07T15:16:03.576Z,6.94
2023-03-07T15:18:44.486Z,6.87
2023-03-07T15:21:19.643Z,6.90
2023-03-07T15:23:54.980Z,6.88
2023-03-07T15:26:27.222Z,6.85
2023-03-07T15:29:02.878Z,6.91
2023-03-07T15:31:51.992Z,7.00
2023-03-07T15:34:25.760Z,6.95
2023-03-07T15:36:53.342Z,6.93
2023-03-07T15:39:36.549Z,6.88
2023-03-07T15:42:08.195Z,6.88
2023-03-07T15:44:36.406Z,6.89
2023-03-07T15:47:22.130Z,6.77
2023-03-07T15:50:01.411Z,6.77
2023-03-07T15:52:32.363Z,6.85
2023-03-07T15:55:01.261Z,6.80
2023-03-07T15:58:00.336Z,6.71
2023-03-07T16:00:30.068Z,6.74
2023-03-07T16:03:14.197Z,6.72
2023-03-07T16:05:40.979Z,6.75
2023-03-07T16:08:13.038Z,6.63
2023-03-07T16:10:46.583Z,6.63
2023-03-07T16:13:16.377Z,6.58
2023-03-07T16:15:43.043Z,6.58
2023-03-07T16:18:16.058Z,6.56
2023-03-07T16:20:42.779Z,6.56
2023-03-07T16:23:12.964Z,6.55
2023-03-07T16:25:39.576Z,6.48
2023-03-07T16:28:06.756Z,6.48
2023-03-07T16:30:33.394Z,6.46
2023-03-07T16:32:59.957Z,6.44
2023-03-07T16:35:28.161Z,6.40
2023-03-07T16:37:55.146Z,6.36
2023-03-07T16:40:22.787Z,6.39
2023-03-07T16:42:50.605Z,6.41
2023-03-07T16:45:28.810Z,6.42
2023-03-07T16:47:57.602Z,6.35
2023-03-07T16:50:27.667Z,6.36
2023-03-07T16:52:54.359Z,6.37
2023-03-07T16:55:21.330Z,6.34
2023-03-07T16:57:54.879Z,6.33
2023-03-07T17:00:24.668Z,5.53
2023-03-07T17:02:53.531Z,4.37
2023-03-07T17:05:25.492Z,3.93
2023-03-07T17:07:53.641Z,3.65
2023-03-07T17:10:21.324Z,3.49
2023-03-07T17:12:50.116Z,3.21
2023-03-07T17:15:19.551Z,3.15
2023-03-07T17:17:46.155Z,2.89
2023-03-07T17:20:15.478Z,2.73
2023-03-07T17:22:42.633Z,2.57
2023-03-07T17:25:10.591Z,2.35
2023-03-07T17:27:41.213Z,2.33
2023-03-07T17:30:08.558Z,2.24
2023-03-07T17:32:35.163Z,2.16
2023-03-07T17:35:02.074Z,2.00
2023-03-07T17:37:29.923Z,1.85
2023-03-07T17:39:56.462Z,1.80
2023-03-07T17:42:22.980Z,1.52
2023-03-07T17:44:49.506Z,1.36
2023-03-07T17:47:16.025Z,1.24
2023-03-07T17:49:43.483Z,1.23
2023-03-07T17:52:11.803Z,1.18
2023-03-07T17:54:38.936Z,1.18
2023-03-07T17:57:05.528Z,1.11
2023-03-07T17:59:32.723Z,1.06
2023-03-07T18:01:59.387Z,1.08
2023-03-07T18:04:28.555Z,1.09
2023-03-07T18:06:55.147Z,1.15
2023-03-07T18:09:23.066Z,1.21
2023-03-07T18:11:49.975Z,1.11
2023-03-07T18:14:16.925Z,1.18
2023-03-07T18:16:43.995Z,1.17
2023-03-07T18:19:23.933Z,1.21
2023-03-07T18:21:52.424Z,1.13
2023-03-07T18:24:27.416Z,1.19
2023-03-07T18:26:55.106Z,1.29
2023-03-07T18:29:22.176Z,1.18
2023-03-07T18:31:48.845Z,1.27
2023-03-07T18:34:15.794Z,1.40
2023-03-07T18:36:43.743Z,1.27
2023-03-07T18:39:11.150Z,1.38
2023-03-07T18:41:38.320Z,1.21
2023-03-07T18:44:04.937Z,1.33
2023-03-07T18:46:32.369Z,1.33
2023-03-07T18:49:00.866Z,1.27
2023-03-07T18:51:28.021Z,1.45
2023-03-07T18:53:59.643Z,1.33
2023-03-07T18:56:27.783Z,1.15
2023-03-07T18:58:56.030Z,1.05
2023-03-07T19:01:34.897Z,1.01
2023-03-07T19:04:03.585Z,1.07
2023-03-07T19:06:39.636Z,1.10
2023-03-07T19:09:14.313Z,1.03
2023-03-07T19:11:40.876Z,1.11
2023-03-07T19:14:07.581Z,1.20
2023-03-07T19:16:34.176Z,1.11
2023-03-07T19:19:00.886Z,1.40
2023-03-07T19:21:29.168Z,1.48
2023-03-07T19:23:58.302Z,1.40
2023-03-07T19:26:25.572Z,1.21
2023-03-07T19:28:54.108Z,1.54
2023-03-07T19:31:31.989Z,1.26
2023-03-07T19:33:59.364Z,1.20
2023-03-07T19:36:28.155Z,1.29
2023-03-07T19:38:57.137Z,1.59
2023-03-07T19:41:25.812Z,1.45
2023-03-07T19:43:53.096Z,1.35
2023-03-07T19:46:21.078Z,1.19
2023-03-07T19:48:48.104Z,1.36
2023-03-07T19:51:19.628Z,1.19
2023-03-07T19:53:46.961Z,1.00
2023-03-07T19:56:25.295Z,1.01
2023-03-07T19:58:51.947Z,0.92
2023-03-07T20:01:20.091Z,0.93
2023-03-07T20:03:48.135Z,1.34
2023-03-07T20:06:20.514Z,1.19
2023-03-07T20:08:48.902Z,1.02
2023-03-07T20:11:16.693Z,0.90
2023-03-07T20:13:45.618Z,1.12
2023-03-07T20:16:14.166Z,0.97
2023-03-07T20:18:40.860Z,0.97
2023-03-07T20:21:17.137Z,1.19
2023-03-07T20:23:45.431Z,1.35
2023-03-07T20:26:15.853Z,1.37
2023-03-07T20:28:42.734Z,1.45
2023-03-07T20:31:09.869Z,1.59
2023-03-07T20:33:37.377Z,1.43
2023-03-07T20:36:09.821Z,1.44
2023-03-07T20:38:37.599Z,1.41
2023-03-07T20:41:06.750Z,1.59
2023-03-07T20:43:34.219Z,1.54
2023-03-07T20:46:06.138Z,1.70
2023-03-07T20:48:32.726Z,1.63
2023-03-07T20:51:09.133Z,1.63
2023-03-07T20:53:35.648Z,1.72
2023-03-07T20:56:04.293Z,1.71
2023-03-07T20:58:31.853Z,1.55
2023-03-07T21:00:59.138Z,1.49
2023-03-07T21:03:26.607Z,1.38
2023-03-07T21:06:01.150Z,1.50
2023-03-07T21:08:30.100Z,1.51
2023-03-07T21:11:04.420Z,1.57
2023-03-07T21:13:32.354Z,1.52
2023-03-07T21:16:00.966Z,1.40
2023-03-07T21:18:27.764Z,1.31
2023-03-07T21:20:54.286Z,1.19
2023-03-07T21:23:20.801Z,1.38
2023-03-07T21:25:47.367Z,1.35
2023-03-07T21:28:13.920Z,1.37
2023-03-07T21:30:40.549Z,1.28
2023-03-07T21:33:07.228Z,1.27
2023-03-07T21:35:38.385Z,1.21
2023-03-07T21:38:05.259Z,1.06
2023-03-07T21:40:32.323Z,1.18
2023-03-07T21:42:59.100Z,1.13
2023-03-07T21:45:25.797Z,1.20
2023-03-07T21:47:54.235Z,1.08
2023-03-07T21:50:20.930Z,1.09
2023-03-07T21:52:47.574Z,1.27
2023-03-07T21:55:14.156Z,1.00
2023-03-07T21:57:40.693Z,1.06
2023-03-07T22:00:08.665Z,0.79
2023-03-07T22:02:37.998Z,0.66
2023-03-07T22:05:05.183Z,0.66
2023-03-07T22:07:31.830Z,0.81
2023-03-07T22:09:58.471Z,0.91
2023-03-07T22:12:24.993Z,1.03
2023-03-07T22:14:51.534Z,1.16
2023-03-07T22:17:18.227Z,1.24
2023-03-07T22:19:44.758Z,1.09
2023-03-07T22:22:11.333Z,0.91
2023-03-07T22:24:37.870Z,0.94
2023-03-07T22:27:04.463Z,0.70
2023-03-07T22:29:33.996Z,0.63
2023-03-07T22:32:00.597Z,0.48
2023-03-07T22:34:27.147Z,0.63
2023-03-07T22:36:57.506Z,0.88
2023-03-07T22:39:24.330Z,0.85
2023-03-07T22:41:51.038Z,1.14
2023-03-07T22:44:19.472Z,1.11
2023-03-07T22:46:47.171Z,0.88
2023-03-07T22:49:13.691Z,0.49
2023-03-07T22:51:40.255Z,0.86
2023-03-07T22:54:07.716Z,0.84
2023-03-07T22:56:35.019Z,0.78
2023-03-07T22:59:02.913Z,0.74
2023-03-07T23:01:30.032Z,0.60
2023-03-07T23:03:58.729Z,0.50
2023-03-07T23:06:29.508Z,0.73
2023-03-07T23:08:57.263Z,0.68
2023-03-07T23:11:28.232Z,0.39
2023-03-07T23:14:11.614Z,0.25
2023-03-07T23:16:39.346Z,0.36
2023-03-07T23:19:06.075Z,0.45
2023-03-07T23:21:34.220Z,0.69
2023-03-07T23:24:02.538Z,0.81
2023-03-07T23:26:32.675Z,0.81
2023-03-07T23:28:59.605Z,0.64
2023-03-07T23:31:28.990Z,0.68
2023-03-07T23:34:01.236Z,0.56
2023-03-07T23:36:29.410Z,0.44
2023-03-07T23:38:58.448Z,0.58
2023-03-07T23:41:25.455Z,0.37
2023-03-07T23:43:57.818Z,0.30
2023-03-07T23:46:26.075Z,0.11
2023-03-07T23:48:53.802Z,0.14
2023-03-07T23:51:21.325Z,0.10
2023-03-07T23:53:48.061Z,0.00
2023-03-07T23:56:14.960Z,0.12
2023-03-07T23:58:42.891Z,0.09
